createdAt,value
2018-03-24T00:00:29.122Z,0
2018-03-24T00:01:28.844Z,0
2018-03-24T00:02:28.813Z,0
2018-03-24T00:03:29.287Z,0
2018-03-24T00:04:29.002Z,0
2018-03-24T00:05:28.975Z,0
2018-03-24T00:06:28.943Z,0
2018-03-24T00:07:28.931Z,0
2018-03-24T00:08:29.198Z,0
2018-03-24T00:09:29.116Z,0
2018-03-24T00:10:28.830Z,0
2018-03-24T00:11:29.052Z,0
2018-03-24T00:12:29.028Z,0
2018-03-24T00:13:28.996Z,0
2018-03-24T00:14:28.975Z,0
2018-03-24T00:15:28.687Z,0
2018-03-24T00:16:28.156Z,0
2018-03-24T00:17:28.884Z,0
2018-03-24T00:18:28.870Z,0
2018-03-24T00:19:28.336Z,0
2018-03-24T00:20:28.551Z,0
2018-03-24T00:21:28.519Z,0
2018-03-24T00:22:28.482Z,0
2018-03-24T00:23:28.205Z,0
2018-03-24T00:24:28.671Z,0
2018-03-24T00:25:28.390Z,0
2018-03-24T00:26:28.371Z,0
2018-03-24T00:27:28.586Z,0
2018-03-24T00:28:28.551Z,0
2018-03-24T00:29:28.537Z,0
2018-03-24T00:30:27.748Z,0
2018-03-24T00:31:28.463Z,0
2018-03-24T00:32:28.447Z,0
2018-03-24T00:33:28.406Z,0
2018-03-24T00:34:28.126Z,0
2018-03-24T00:35:28.098Z,0
2018-03-24T00:36:27.571Z,0
2018-03-24T00:37:28.291Z,0
2018-03-24T00:38:28.011Z,0
2018-03-24T00:39:27.814Z,0
2018-03-24T00:40:27.954Z,0
2018-03-24T00:41:28.166Z,0
2018-03-24T00:42:28.144Z,0
2018-03-24T00:43:27.864Z,0
2018-03-24T00:44:27.887Z,0
2018-03-24T00:45:28.058Z,0
2018-03-24T00:46:28.022Z,0
2018-03-24T00:47:27.504Z,0
2018-03-24T00:48:27.719Z,0
2018-03-24T00:49:27.688Z,0
2018-03-24T00:50:27.907Z,0
2018-03-24T00:51:27.625Z,0
2018-03-24T00:52:27.893Z,0
2018-03-24T00:53:27.816Z,0
2018-03-24T00:54:27.811Z,0
2018-03-24T00:55:27.754Z,0
2018-03-24T00:56:27.480Z,0
2018-03-24T00:57:27.700Z,0
2018-03-24T00:58:27.427Z,0
2018-03-24T00:59:27.638Z,0
2018-03-24T01:00:27.615Z,0
2018-03-24T01:01:27.591Z,0
2018-03-24T01:02:27.296Z,0
2018-03-24T01:03:27.523Z,0
2018-03-24T01:04:27.493Z,0
2018-03-24T01:05:27.465Z,0
2018-03-24T01:06:27.194Z,0
2018-03-24T01:07:27.403Z,0
2018-03-24T01:08:27.369Z,0
2018-03-24T01:09:27.341Z,0
2018-03-24T01:10:27.081Z,0
2018-03-24T01:11:27.292Z,0
2018-03-24T01:12:27.246Z,0
2018-03-24T01:13:27.219Z,0
2018-03-24T01:14:26.707Z,0
2018-03-24T01:15:26.425Z,0
2018-03-24T01:16:27.205Z,0
2018-03-24T01:17:27.112Z,0
2018-03-24T01:18:26.826Z,0
2018-03-24T01:19:26.540Z,0
2018-03-24T01:20:26.772Z,0
2018-03-24T01:21:26.995Z,0
2018-03-24T01:22:26.715Z,0
2018-03-24T01:23:26.925Z,0
2018-03-24T01:24:26.500Z,0
2018-03-24T01:25:26.860Z,0
2018-03-24T01:26:26.837Z,0
2018-03-24T01:27:26.809Z,0
2018-03-24T01:28:26.522Z,0
2018-03-24T01:29:26.500Z,0
2018-03-24T01:30:26.221Z,0
2018-03-24T01:31:26.433Z,0
2018-03-24T01:32:26.401Z,0
2018-03-24T01:33:26.635Z,0
2018-03-24T01:34:26.344Z,0
2018-03-24T01:35:26.064Z,0
2018-03-24T01:36:26.286Z,0
2018-03-24T01:37:26.511Z,0
2018-03-24T01:38:26.223Z,0
2018-03-24T01:39:25.944Z,0
2018-03-24T01:40:26.406Z,0
2018-03-24T01:41:26.391Z,0
2018-03-24T01:42:26.100Z,0
2018-03-24T01:43:25.828Z,0
2018-03-24T01:44:26.290Z,0
2018-03-24T01:45:26.257Z,0
2018-03-24T01:46:26.237Z,0
2018-03-24T01:47:26.197Z,0
2018-03-24T01:48:25.925Z,0
2018-03-24T01:49:25.886Z,0
2018-03-24T01:50:26.107Z,0
2018-03-24T01:51:26.132Z,0
2018-03-24T01:52:26.051Z,0
2018-03-24T01:53:25.780Z,0
2018-03-24T01:54:25.994Z,0
2018-03-24T01:55:25.956Z,0
2018-03-24T01:56:25.925Z,0
2018-03-24T01:57:25.647Z,0
2018-03-24T01:58:25.618Z,0
2018-03-24T01:59:25.349Z,0
2018-03-24T02:00:25.564Z,0
2018-03-24T02:01:25.537Z,0
2018-03-24T02:02:25.757Z,0
2018-03-24T02:03:25.484Z,0
2018-03-24T02:04:25.791Z,0
2018-03-24T02:05:25.404Z,0
2018-03-24T02:06:25.373Z,0
2018-03-24T02:07:25.602Z,0
2018-03-24T02:08:25.316Z,0
2018-03-24T02:09:25.041Z,0
2018-03-24T02:10:25.513Z,0
2018-03-24T02:11:25.477Z,0
2018-03-24T02:12:25.450Z,0
2018-03-24T02:13:24.918Z,0
2018-03-24T02:14:25.428Z,0
2018-03-24T02:15:25.108Z,0
2018-03-24T02:16:25.083Z,0
2018-03-24T02:17:25.047Z,0
2018-03-24T02:18:25.311Z,0
2018-03-24T02:19:24.986Z,0
2018-03-24T02:20:24.957Z,0
2018-03-24T02:21:25.175Z,0
2018-03-24T02:22:25.145Z,0
2018-03-24T02:23:24.612Z,0
2018-03-24T02:24:25.079Z,0
2018-03-24T02:25:25.050Z,0
2018-03-24T02:26:24.790Z,0
2018-03-24T02:27:24.750Z,0
2018-03-24T02:28:24.210Z,0
2018-03-24T02:29:24.676Z,0
2018-03-24T02:30:24.902Z,0
2018-03-24T02:31:24.900Z,0
2018-03-24T02:32:24.869Z,0
2018-03-24T02:33:24.319Z,0
2018-03-24T02:34:24.778Z,0
2018-03-24T02:35:24.761Z,0
2018-03-24T02:36:24.723Z,0
2018-03-24T02:37:24.687Z,0
2018-03-24T02:38:24.666Z,0
2018-03-24T02:39:24.631Z,0
2018-03-24T02:40:24.090Z,0
2018-03-24T02:41:24.566Z,0
2018-03-24T02:42:24.317Z,0
2018-03-24T02:43:24.255Z,0
2018-03-24T02:44:23.973Z,0
2018-03-24T02:45:24.448Z,0
2018-03-24T02:46:24.433Z,0
2018-03-24T02:47:24.401Z,0
2018-03-24T02:48:24.350Z,0
2018-03-24T02:49:24.312Z,0
2018-03-24T02:50:24.293Z,0
2018-03-24T02:51:24.260Z,0
2018-03-24T02:52:23.990Z,0
2018-03-24T02:53:23.706Z,0
2018-03-24T02:54:24.174Z,0
2018-03-24T02:55:24.144Z,0
2018-03-24T02:56:24.117Z,0
2018-03-24T02:57:24.090Z,0
2018-03-24T02:58:23.881Z,0
2018-03-24T02:59:23.772Z,0
2018-03-24T03:00:23.736Z,0
2018-03-24T03:01:23.731Z,0
2018-03-24T03:02:23.936Z,0
2018-03-24T03:03:23.670Z,0
2018-03-24T03:04:23.870Z,0
2018-03-24T03:05:23.835Z,0
2018-03-24T03:06:23.559Z,0
2018-03-24T03:07:23.776Z,0
2018-03-24T03:08:23.727Z,0
2018-03-24T03:09:23.456Z,0
2018-03-24T03:10:23.674Z,0
2018-03-24T03:11:23.637Z,0
2018-03-24T03:12:23.618Z,0
2018-03-24T03:13:23.729Z,0
2018-03-24T03:14:23.926Z,0
2018-03-24T03:15:23.265Z,0
2018-03-24T03:16:23.487Z,0
2018-03-24T03:17:23.474Z,0
2018-03-24T03:18:23.426Z,0
2018-03-24T03:19:23.393Z,0
2018-03-24T03:20:23.384Z,0
2018-03-24T03:21:23.084Z,0
2018-03-24T03:22:23.297Z,0
2018-03-24T03:23:23.261Z,0
2018-03-24T03:24:23.233Z,0
2018-03-24T03:25:23.200Z,0
2018-03-24T03:26:22.929Z,0
2018-03-24T03:27:23.143Z,0
2018-03-24T03:28:23.109Z,0
2018-03-24T03:29:23.089Z,0
2018-03-24T03:30:23.060Z,0
2018-03-24T03:31:22.798Z,0
2018-03-24T03:32:22.984Z,0
2018-03-24T03:33:22.704Z,0
2018-03-24T03:34:22.425Z,0
2018-03-24T03:35:22.650Z,0
2018-03-24T03:36:22.861Z,0
2018-03-24T03:37:22.909Z,0
2018-03-24T03:38:22.800Z,0
2018-03-24T03:39:22.768Z,0
2018-03-24T03:40:22.734Z,0
2018-03-24T03:41:22.700Z,0
2018-03-24T03:42:22.666Z,0
2018-03-24T03:43:22.148Z,0
2018-03-24T03:44:22.614Z,0
2018-03-24T03:45:22.334Z,0
2018-03-24T03:46:22.554Z,0
2018-03-24T03:47:22.372Z,0
2018-03-24T03:48:21.996Z,0
2018-03-24T03:49:21.991Z,0
2018-03-24T03:50:22.422Z,0
2018-03-24T03:51:22.392Z,0
2018-03-24T03:52:22.111Z,0
2018-03-24T03:53:22.328Z,0
2018-03-24T03:54:22.304Z,0
2018-03-24T03:55:22.029Z,0
2018-03-24T03:56:22.240Z,0
2018-03-24T03:57:21.953Z,0
2018-03-24T03:58:21.940Z,0
2018-03-24T03:59:21.643Z,0
2018-03-24T04:00:22.112Z,0
2018-03-24T04:01:22.089Z,0
2018-03-24T04:02:22.051Z,0
2018-03-24T04:03:21.777Z,0
2018-03-24T04:04:21.992Z,0
2018-03-24T04:05:21.954Z,0
2018-03-24T04:06:21.919Z,0
2018-03-24T04:07:21.392Z,0
2018-03-24T04:08:21.611Z,0
2018-03-24T04:09:21.833Z,0
2018-03-24T04:10:21.788Z,0
2018-03-24T04:11:21.768Z,0
2018-03-24T04:12:21.740Z,0
2018-03-24T04:13:21.451Z,0
2018-03-24T04:14:21.675Z,0
2018-03-24T04:15:21.630Z,0
2018-03-24T04:16:21.358Z,0
2018-03-24T04:17:21.334Z,0
2018-03-24T04:18:21.608Z,0
2018-03-24T04:19:21.268Z,0
2018-03-24T04:20:21.490Z,0
2018-03-24T04:21:21.205Z,0
2018-03-24T04:22:21.429Z,0
2018-03-24T04:23:21.142Z,0
2018-03-24T04:24:21.355Z,0
2018-03-24T04:25:21.327Z,0
2018-03-24T04:26:21.298Z,0
2018-03-24T04:27:21.014Z,0
2018-03-24T04:28:20.993Z,0
2018-03-24T04:29:20.461Z,0
2018-03-24T04:30:21.168Z,0
2018-03-24T04:31:21.154Z,0
2018-03-24T04:32:21.107Z,0
2018-03-24T04:33:21.075Z,0
2018-03-24T04:34:20.809Z,0
2018-03-24T04:35:21.018Z,0
2018-03-24T04:36:20.981Z,0
2018-03-24T04:37:20.704Z,0
2018-03-24T04:38:20.962Z,0
2018-03-24T04:39:20.137Z,0
2018-03-24T04:40:20.864Z,0
2018-03-24T04:41:20.827Z,0
2018-03-24T04:42:20.798Z,0
2018-03-24T04:43:20.283Z,0
2018-03-24T04:44:20.485Z,0
2018-03-24T04:45:20.445Z,0
2018-03-24T04:46:20.420Z,0
2018-03-24T04:47:20.130Z,0
2018-03-24T04:48:20.103Z,0
2018-03-24T04:49:20.321Z,0
2018-03-24T04:50:20.046Z,0
2018-03-24T04:51:20.506Z,0
2018-03-24T04:52:20.226Z,0
2018-03-24T04:53:20.208Z,0
2018-03-24T04:54:20.415Z,0
2018-03-24T04:55:20.144Z,0
2018-03-24T04:56:19.862Z,0
2018-03-24T04:57:19.817Z,0
2018-03-24T04:58:20.438Z,0
2018-03-24T04:59:20.262Z,0
2018-03-24T05:00:19.725Z,0
2018-03-24T05:01:20.186Z,0
2018-03-24T05:02:20.169Z,0
2018-03-24T05:03:19.883Z,0
2018-03-24T05:04:19.854Z,0
2018-03-24T05:05:19.569Z,0
2018-03-24T05:06:19.792Z,0
2018-03-24T05:07:19.752Z,0
2018-03-24T05:08:19.982Z,0
2018-03-24T05:09:19.607Z,0
2018-03-24T05:10:19.407Z,0
2018-03-24T05:11:19.877Z,0
2018-03-24T05:12:19.844Z,5
2018-03-24T05:13:19.839Z,5
2018-03-24T05:14:19.285Z,5
2018-03-24T05:15:19.751Z,5
2018-03-24T05:16:19.715Z,5
2018-03-24T05:17:19.497Z,5
2018-03-24T05:18:19.709Z,10
2018-03-24T05:19:19.378Z,10
2018-03-24T05:20:19.590Z,10
2018-03-24T05:21:19.066Z,10
2018-03-24T05:22:19.537Z,15
2018-03-24T05:23:19.503Z,15
2018-03-24T05:24:19.469Z,15
2018-03-24T05:25:19.181Z,20
2018-03-24T05:26:19.604Z,20
2018-03-24T05:27:18.627Z,20
2018-03-24T05:28:18.846Z,25
2018-03-24T05:29:18.807Z,25
2018-03-24T05:30:18.776Z,30
2018-03-24T05:31:18.997Z,30
2018-03-24T05:32:19.220Z,35
2018-03-24T05:33:19.219Z,35
2018-03-24T05:34:19.154Z,40
2018-03-24T05:35:19.119Z,40
2018-03-24T05:36:19.093Z,45
2018-03-24T05:37:18.560Z,45
2018-03-24T05:38:18.791Z,50
2018-03-24T05:39:19.103Z,50
2018-03-24T05:40:18.719Z,55
2018-03-24T05:41:18.930Z,55
2018-03-24T05:42:18.648Z,60
2018-03-24T05:43:18.620Z,65
2018-03-24T05:44:18.090Z,70
2018-03-24T05:45:18.564Z,75
2018-03-24T05:46:18.772Z,80
2018-03-24T05:47:18.505Z,80
2018-03-24T05:48:18.726Z,85
2018-03-24T05:49:18.198Z,90
2018-03-24T05:50:18.661Z,90
2018-03-24T05:51:18.364Z,90
2018-03-24T05:52:18.403Z,95
2018-03-24T05:53:18.578Z,100
2018-03-24T05:54:18.529Z,100
2018-03-24T05:55:18.513Z,105
2018-03-24T05:56:18.471Z,110
2018-03-24T05:57:18.434Z,110
2018-03-24T05:58:18.163Z,110
2018-03-24T05:59:17.873Z,110
2018-03-24T06:00:18.336Z,115
2018-03-24T06:01:18.309Z,120
2018-03-24T06:02:18.029Z,125
2018-03-24T06:03:18.250Z,130
2018-03-24T06:04:17.980Z,130
2018-03-24T06:05:18.201Z,135
2018-03-24T06:06:17.953Z,140
2018-03-24T06:07:17.879Z,150
2018-03-24T06:08:17.607Z,155
2018-03-24T06:09:17.811Z,160
2018-03-24T06:10:17.818Z,160
2018-03-24T06:11:17.755Z,165
2018-03-24T06:12:17.715Z,165
2018-03-24T06:13:17.744Z,170
2018-03-24T06:14:17.675Z,175
2018-03-24T06:15:17.629Z,170
2018-03-24T06:16:17.610Z,180
2018-03-24T06:17:17.570Z,185
2018-03-24T06:18:17.788Z,195
2018-03-24T06:19:17.760Z,205
2018-03-24T06:20:17.733Z,210
2018-03-24T06:21:17.695Z,220
2018-03-24T06:22:17.726Z,225
2018-03-24T06:23:17.640Z,235
2018-03-24T06:24:17.602Z,235
2018-03-24T06:25:17.078Z,235
2018-03-24T06:26:17.064Z,240
2018-03-24T06:27:17.531Z,240
2018-03-24T06:28:17.240Z,245
2018-03-24T06:29:17.224Z,245
2018-03-24T06:30:17.181Z,250
2018-03-24T06:31:17.403Z,255
2018-03-24T06:32:17.372Z,260
2018-03-24T06:33:17.346Z,265
2018-03-24T06:34:16.810Z,280
2018-03-24T06:35:17.035Z,280
2018-03-24T06:36:17.026Z,285
2018-03-24T06:37:16.970Z,290
2018-03-24T06:38:17.001Z,295
2018-03-24T06:39:17.166Z,300
2018-03-24T06:40:16.385Z,300
2018-03-24T06:41:17.113Z,305
2018-03-24T06:42:17.075Z,310
2018-03-24T06:43:16.549Z,310
2018-03-24T06:44:17.017Z,310
2018-03-24T06:45:16.493Z,315
2018-03-24T06:46:16.465Z,325
2018-03-24T06:47:16.685Z,335
2018-03-24T06:48:16.407Z,335
2018-03-24T06:49:16.372Z,340
2018-03-24T06:50:16.598Z,340
2018-03-24T06:51:16.322Z,340
2018-03-24T06:52:16.554Z,340
2018-03-24T06:53:16.766Z,345
2018-03-24T06:54:16.489Z,340
2018-03-24T06:55:16.209Z,340
2018-03-24T06:56:16.428Z,335
2018-03-24T06:57:16.642Z,335
2018-03-24T06:58:16.373Z,330
2018-03-24T06:59:16.600Z,330
2018-03-24T07:00:15.817Z,335
2018-03-24T07:01:16.539Z,330
2018-03-24T07:02:16.513Z,330
2018-03-24T07:03:16.233Z,335
2018-03-24T07:04:16.470Z,330
2018-03-24T07:05:16.183Z,330
2018-03-24T07:06:16.391Z,330
2018-03-24T07:07:15.884Z,330
2018-03-24T07:08:16.096Z,330
2018-03-24T07:09:15.565Z,330
2018-03-24T07:10:16.291Z,325
2018-03-24T07:11:16.275Z,325
2018-03-24T07:12:16.569Z,325
2018-03-24T07:13:15.702Z,325
2018-03-24T07:14:16.180Z,330
2018-03-24T07:15:16.139Z,330
2018-03-24T07:16:16.125Z,330
2018-03-24T07:17:16.096Z,335
2018-03-24T07:18:16.071Z,335
2018-03-24T07:19:15.788Z,340
2018-03-24T07:20:15.753Z,345
2018-03-24T07:21:16.087Z,345
2018-03-24T07:22:15.948Z,350
2018-03-24T07:23:15.927Z,350
2018-03-24T07:24:15.686Z,350
2018-03-24T07:25:15.880Z,355
2018-03-24T07:26:15.850Z,355
2018-03-24T07:27:15.572Z,360
2018-03-24T07:28:15.552Z,360
2018-03-24T07:29:15.520Z,365
2018-03-24T07:30:14.988Z,365
2018-03-24T07:31:15.456Z,365
2018-03-24T07:32:15.440Z,370
2018-03-24T07:33:15.394Z,375
2018-03-24T07:34:15.127Z,375
2018-03-24T07:35:15.590Z,380
2018-03-24T07:36:15.584Z,380
2018-03-24T07:37:15.294Z,380
2018-03-24T07:38:15.513Z,385
2018-03-24T07:39:14.730Z,385
2018-03-24T07:40:15.451Z,390
2018-03-24T07:41:15.434Z,395
2018-03-24T07:42:15.217Z,390
2018-03-24T07:43:14.889Z,395
2018-03-24T07:44:15.091Z,395
2018-03-24T07:45:15.313Z,390
2018-03-24T07:46:15.290Z,390
2018-03-24T07:47:14.762Z,390
2018-03-24T07:48:14.992Z,390
2018-03-24T07:49:14.957Z,390
2018-03-24T07:50:14.439Z,390
2018-03-24T07:51:15.195Z,390
2018-03-24T07:52:14.872Z,385
2018-03-24T07:53:15.096Z,385
2018-03-24T07:54:14.569Z,385
2018-03-24T07:55:15.036Z,385
2018-03-24T07:56:14.863Z,380
2018-03-24T07:57:14.740Z,380
2018-03-24T07:58:14.459Z,380
2018-03-24T07:59:14.687Z,380
2018-03-24T08:00:14.659Z,380
2018-03-24T08:01:14.872Z,380
2018-03-24T08:02:14.594Z,380
2018-03-24T08:03:14.824Z,385
2018-03-24T08:04:14.588Z,380
2018-03-24T08:05:14.764Z,380
2018-03-24T08:06:14.485Z,380
2018-03-24T08:07:14.208Z,380
2018-03-24T08:08:14.680Z,380
2018-03-24T08:09:14.658Z,385
2018-03-24T08:10:14.132Z,385
2018-03-24T08:11:18.293Z,390
2018-03-24T08:12:15.307Z,390
2018-03-24T08:13:14.343Z,395
2018-03-24T08:14:15.285Z,395
2018-03-24T08:15:14.500Z,395
2018-03-24T08:16:15.110Z,400
2018-03-24T08:17:14.443Z,400
2018-03-24T08:18:13.923Z,405
2018-03-24T08:19:13.890Z,410
2018-03-24T08:20:14.359Z,415
2018-03-24T08:21:14.337Z,415
2018-03-24T08:22:13.807Z,420
2018-03-24T08:23:14.036Z,425
2018-03-24T08:24:14.264Z,425
2018-03-24T08:25:13.728Z,430
2018-03-24T08:26:13.958Z,435
2018-03-24T08:27:14.086Z,440
2018-03-24T08:28:13.896Z,440
2018-03-24T08:29:14.118Z,445
2018-03-24T08:30:13.842Z,450
2018-03-24T08:31:14.061Z,455
2018-03-24T08:32:14.042Z,450
2018-03-24T08:33:14.203Z,450
2018-03-24T08:34:13.990Z,450
2018-03-24T08:35:14.015Z,445
2018-03-24T08:36:13.438Z,450
2018-03-24T08:37:13.917Z,445
2018-03-24T08:38:13.390Z,445
2018-03-24T08:39:13.858Z,445
2018-03-24T08:40:13.575Z,445
2018-03-24T08:41:13.053Z,445
2018-03-24T08:42:13.779Z,445
2018-03-24T08:43:13.511Z,445
2018-03-24T08:44:13.227Z,445
2018-03-24T08:45:13.449Z,440
2018-03-24T08:46:13.674Z,435
2018-03-24T08:47:13.741Z,430
2018-03-24T08:48:13.370Z,435
2018-03-24T08:49:13.603Z,435
2018-03-24T08:50:13.788Z,440
2018-03-24T08:51:13.045Z,445
2018-03-24T08:52:13.268Z,445
2018-03-24T08:53:13.491Z,445
2018-03-24T08:54:13.482Z,450
2018-03-24T08:55:14.317Z,450
2018-03-24T08:56:12.668Z,455
2018-03-24T08:57:12.891Z,455
2018-03-24T08:58:13.109Z,460
2018-03-24T08:59:13.088Z,460
2018-03-24T09:00:13.318Z,465
2018-03-24T09:01:12.791Z,470
2018-03-24T09:02:13.347Z,470
2018-03-24T09:03:12.738Z,470
2018-03-24T09:04:12.973Z,475
2018-03-24T09:05:12.685Z,480
2018-03-24T09:06:13.156Z,485
2018-03-24T09:07:12.642Z,490
2018-03-24T09:08:12.613Z,490
2018-03-24T09:09:12.582Z,495
2018-03-24T09:10:12.808Z,490
2018-03-24T09:11:12.782Z,495
2018-03-24T09:12:12.521Z,490
2018-03-24T09:13:12.490Z,490
2018-03-24T09:14:12.463Z,495
2018-03-24T09:15:13.095Z,495
2018-03-24T09:16:12.918Z,485
2018-03-24T09:17:12.656Z,480
2018-03-24T09:18:12.618Z,480
2018-03-24T09:19:12.588Z,480
2018-03-24T09:20:12.560Z,480
2018-03-24T09:21:12.781Z,470
2018-03-24T09:22:12.521Z,470
2018-03-24T09:23:12.750Z,465
2018-03-24T09:24:12.761Z,460
2018-03-24T09:25:12.370Z,465
2018-03-24T09:26:11.948Z,475
2018-03-24T09:27:13.812Z,485
2018-03-24T09:28:12.482Z,490
2018-03-24T09:29:12.090Z,490
2018-03-24T09:30:12.068Z,495
2018-03-24T09:31:12.301Z,490
2018-03-24T09:32:12.031Z,495
2018-03-24T09:33:12.247Z,505
2018-03-24T09:34:12.225Z,505
2018-03-24T09:35:12.296Z,505
2018-03-24T09:36:12.170Z,510
2018-03-24T09:37:12.155Z,515
2018-03-24T09:38:11.622Z,520
2018-03-24T09:39:11.852Z,530
2018-03-24T09:40:11.831Z,535
2018-03-24T09:41:12.310Z,540
2018-03-24T09:42:12.278Z,545
2018-03-24T09:43:12.252Z,545
2018-03-24T09:44:12.237Z,545
2018-03-24T09:45:11.951Z,555
2018-03-24T09:46:11.934Z,565
2018-03-24T09:47:11.661Z,565
2018-03-24T09:48:11.637Z,575
2018-03-24T09:49:11.864Z,575
2018-03-24T09:50:12.091Z,580
2018-03-24T09:51:12.094Z,590
2018-03-24T09:52:11.544Z,590
2018-03-24T09:53:11.774Z,600
2018-03-24T09:54:11.753Z,610
2018-03-24T09:55:11.969Z,655
2018-03-24T09:56:11.701Z,705
2018-03-24T09:57:11.428Z,720
2018-03-24T09:58:11.718Z,715
2018-03-24T09:59:11.645Z,715
2018-03-24T10:00:11.354Z,730
2018-03-24T10:01:11.587Z,740
2018-03-24T10:02:11.563Z,695
2018-03-24T10:03:11.550Z,670
2018-03-24T10:04:11.767Z,700
2018-03-24T10:05:11.854Z,715
2018-03-24T10:06:11.472Z,745
2018-03-24T10:07:10.954Z,765
2018-03-24T10:08:11.780Z,755
2018-03-24T10:09:11.666Z,735
2018-03-24T10:10:11.636Z,735
2018-03-24T10:11:10.612Z,705
2018-03-24T10:12:11.088Z,685
2018-03-24T10:13:11.866Z,650
2018-03-24T10:14:11.555Z,635
2018-03-24T10:15:11.274Z,630
2018-03-24T10:16:11.250Z,625
2018-03-24T10:17:11.229Z,615
2018-03-24T10:18:11.510Z,610
2018-03-24T10:19:11.190Z,630
2018-03-24T10:20:11.418Z,645
2018-03-24T10:21:11.143Z,645
2018-03-24T10:22:11.120Z,625
2018-03-24T10:23:10.849Z,625
2018-03-24T10:24:10.577Z,610
2018-03-24T10:25:11.050Z,610
2018-03-24T10:26:10.790Z,605
2018-03-24T10:27:10.765Z,595
2018-03-24T10:28:11.237Z,590
2018-03-24T10:29:10.973Z,580
2018-03-24T10:30:11.200Z,595
2018-03-24T10:31:10.676Z,620
2018-03-24T10:32:10.902Z,655
2018-03-24T10:33:10.901Z,675
2018-03-24T10:34:10.359Z,680
2018-03-24T10:35:11.095Z,680
2018-03-24T10:36:10.823Z,675
2018-03-24T10:37:10.796Z,665
2018-03-24T10:38:10.832Z,640
2018-03-24T10:39:10.762Z,635
2018-03-24T10:40:10.737Z,625
2018-03-24T10:41:10.462Z,615
2018-03-24T10:42:10.946Z,620
2018-03-24T10:43:10.676Z,600
2018-03-24T10:44:10.407Z,625
2018-03-24T10:45:10.376Z,610
2018-03-24T10:46:10.605Z,615
2018-03-24T10:47:10.595Z,655
2018-03-24T10:48:10.808Z,655
2018-03-24T10:49:10.554Z,655
2018-03-24T10:50:10.555Z,675
2018-03-24T10:51:10.553Z,695
2018-03-24T10:52:10.748Z,695
2018-03-24T10:53:10.725Z,690
2018-03-24T10:54:09.951Z,685
2018-03-24T10:55:09.940Z,675
2018-03-24T10:56:10.646Z,670
2018-03-24T10:57:10.684Z,675
2018-03-24T10:58:10.694Z,695
2018-03-24T10:59:09.878Z,720
2018-03-24T11:00:10.311Z,730
2018-03-24T11:01:10.039Z,730
2018-03-24T11:02:10.528Z,735
2018-03-24T11:03:09.751Z,735
2018-03-24T11:04:10.608Z,720
2018-03-24T11:05:10.458Z,730
2018-03-24T11:06:09.933Z,725
2018-03-24T11:07:10.172Z,730
2018-03-24T11:08:09.896Z,715
2018-03-24T11:09:10.129Z,685
2018-03-24T11:10:10.356Z,675
2018-03-24T11:11:10.085Z,675
2018-03-24T11:12:10.066Z,650
2018-03-24T11:13:10.047Z,645
2018-03-24T11:14:10.026Z,660
2018-03-24T11:15:09.758Z,685
2018-03-24T11:16:09.486Z,710
2018-03-24T11:17:10.213Z,745
2018-03-24T11:18:10.201Z,750
2018-03-24T11:19:10.219Z,750
2018-03-24T11:20:09.658Z,755
2018-03-24T11:21:09.892Z,760
2018-03-24T11:22:09.864Z,755
2018-03-24T11:23:09.599Z,760
2018-03-24T11:24:10.074Z,770
2018-03-24T11:25:10.062Z,780
2018-03-24T11:26:09.550Z,785
2018-03-24T11:27:09.779Z,795
2018-03-24T11:28:09.999Z,820
2018-03-24T11:29:09.727Z,845
2018-03-24T11:30:09.726Z,875
2018-03-24T11:31:09.702Z,915
2018-03-24T11:32:09.675Z,985
2018-03-24T11:33:09.746Z,1065
2018-03-24T11:34:09.734Z,1080
2018-03-24T11:35:09.869Z,1020
2018-03-24T11:36:11.170Z,925
2018-03-24T11:37:10.406Z,885
2018-03-24T11:38:09.669Z,850
2018-03-24T11:39:09.784Z,810
2018-03-24T11:40:09.531Z,815
2018-03-24T11:41:09.267Z,825
2018-03-24T11:42:09.741Z,845
2018-03-24T11:43:09.712Z,865
2018-03-24T11:44:09.507Z,875
2018-03-24T11:45:09.570Z,895
2018-03-24T11:46:09.189Z,925
2018-03-24T11:47:09.649Z,960
2018-03-24T11:48:09.620Z,1015
2018-03-24T11:49:09.353Z,1005
2018-03-24T11:50:09.341Z,985
2018-03-24T11:51:09.321Z,975
2018-03-24T11:52:09.051Z,930
2018-03-24T11:53:08.786Z,905
2018-03-24T11:54:09.051Z,895
2018-03-24T11:55:09.501Z,890
2018-03-24T11:56:09.241Z,865
2018-03-24T11:57:08.961Z,850
2018-03-24T11:58:09.444Z,835
2018-03-24T11:59:09.427Z,830
2018-03-24T12:00:08.909Z,850
2018-03-24T12:01:09.143Z,875
2018-03-24T12:02:09.131Z,905
2018-03-24T12:03:08.867Z,900
2018-03-24T12:04:08.843Z,895
2018-03-24T12:05:09.325Z,890
2018-03-24T12:06:09.061Z,895
2018-03-24T12:07:08.792Z,910
2018-03-24T12:08:09.029Z,900
2018-03-24T12:09:08.750Z,895
2018-03-24T12:10:08.996Z,900
2018-03-24T12:11:08.729Z,905
2018-03-24T12:12:08.957Z,895
2018-03-24T12:13:09.196Z,880
2018-03-24T12:14:08.669Z,875
2018-03-24T12:15:08.907Z,875
2018-03-24T12:16:08.884Z,890
2018-03-24T12:17:08.868Z,910
2018-03-24T12:18:08.627Z,945
2018-03-24T12:19:08.908Z,965
2018-03-24T12:20:09.074Z,975
2018-03-24T12:21:09.045Z,980
2018-03-24T12:22:09.032Z,1010
2018-03-24T12:23:09.015Z,1010
2018-03-24T12:24:08.750Z,1010
2018-03-24T12:25:08.231Z,1005
2018-03-24T12:26:08.469Z,1000
2018-03-24T12:27:08.699Z,970
2018-03-24T12:28:08.697Z,945
2018-03-24T12:29:08.667Z,940
2018-03-24T12:30:08.153Z,930
2018-03-24T12:31:08.895Z,945
2018-03-24T12:32:08.614Z,950
2018-03-24T12:33:08.740Z,960
2018-03-24T12:34:08.340Z,960
2018-03-24T12:35:08.087Z,950
2018-03-24T12:36:08.298Z,950
2018-03-24T12:37:08.531Z,930
2018-03-24T12:38:08.767Z,920
2018-03-24T12:39:08.247Z,910
2018-03-24T12:40:07.736Z,900
2018-03-24T12:41:08.468Z,910
2018-03-24T12:42:08.453Z,915
2018-03-24T12:43:08.488Z,915
2018-03-24T12:44:08.173Z,910
2018-03-24T12:45:08.650Z,915
2018-03-24T12:46:08.387Z,920
2018-03-24T12:47:08.378Z,915
2018-03-24T12:48:08.109Z,915
2018-03-24T12:49:08.584Z,910
2018-03-24T12:50:08.317Z,910
2018-03-24T12:51:07.808Z,905
2018-03-24T12:52:08.042Z,910
2018-03-24T12:53:08.274Z,920
2018-03-24T12:54:08.257Z,915
2018-03-24T12:55:08.244Z,915
2018-03-24T12:56:07.977Z,915
2018-03-24T12:57:07.957Z,925
2018-03-24T12:58:07.947Z,915
2018-03-24T12:59:08.438Z,910
2018-03-24T13:00:07.923Z,905
2018-03-24T13:01:07.896Z,890
2018-03-24T13:02:07.631Z,880
2018-03-24T13:03:08.119Z,885
2018-03-24T13:04:08.099Z,870
2018-03-24T13:05:07.580Z,860
2018-03-24T13:06:07.819Z,850
2018-03-24T13:07:08.314Z,845
2018-03-24T13:08:07.784Z,840
2018-03-24T13:09:07.517Z,845
2018-03-24T13:10:08.244Z,850
2018-03-24T13:11:07.734Z,860
2018-03-24T13:12:08.071Z,855
2018-03-24T13:13:08.202Z,845
2018-03-24T13:14:07.954Z,830
2018-03-24T13:15:08.168Z,820
2018-03-24T13:16:07.898Z,815
2018-03-24T13:17:07.896Z,800
2018-03-24T13:18:07.878Z,790
2018-03-24T13:19:07.600Z,785
2018-03-24T13:20:07.594Z,790
2018-03-24T13:21:07.567Z,790
2018-03-24T13:22:07.551Z,790
2018-03-24T13:23:07.536Z,775
2018-03-24T13:24:07.274Z,765
2018-03-24T13:25:08.003Z,760
2018-03-24T13:26:07.991Z,745
2018-03-24T13:27:07.974Z,735
2018-03-24T13:28:07.692Z,740
2018-03-24T13:29:07.431Z,745
2018-03-24T13:30:07.416Z,745
2018-03-24T13:31:07.751Z,745
2018-03-24T13:32:07.633Z,750
2018-03-24T13:33:07.867Z,750
2018-03-24T13:34:07.855Z,750
2018-03-24T13:35:07.587Z,755
2018-03-24T13:36:07.806Z,760
2018-03-24T13:37:07.797Z,765
2018-03-24T13:38:07.536Z,770
2018-03-24T13:39:07.510Z,775
2018-03-24T13:40:07.743Z,780
2018-03-24T13:41:07.473Z,780
2018-03-24T13:42:07.458Z,785
2018-03-24T13:43:07.730Z,785
2018-03-24T13:44:07.428Z,790
2018-03-24T13:45:07.410Z,795
2018-03-24T13:46:07.632Z,800
2018-03-24T13:47:07.127Z,810
2018-03-24T13:48:07.599Z,820
2018-03-24T13:49:07.582Z,820
2018-03-24T13:50:07.567Z,825
2018-03-24T13:51:07.051Z,830
2018-03-24T13:52:07.521Z,835
2018-03-24T13:53:07.261Z,830
2018-03-24T13:54:07.540Z,845
2018-03-24T13:55:07.223Z,840
2018-03-24T13:56:07.201Z,880
2018-03-24T13:57:06.944Z,860
2018-03-24T13:58:07.422Z,850
2018-03-24T13:59:07.159Z,855
2018-03-24T14:00:07.144Z,865
2018-03-24T14:01:07.116Z,840
2018-03-24T14:02:07.211Z,830
2018-03-24T14:03:07.405Z,845
2018-03-24T14:04:07.063Z,825
2018-03-24T14:05:07.051Z,830
2018-03-24T14:06:07.042Z,825
2018-03-24T14:07:06.765Z,830
2018-03-24T14:08:06.993Z,830